CheckWX is a tool to help pilots better visualize weather data.  It is not intended as a substitute for an official pre-flight weather briefing.

09:56:12 UTC

KDUJ TAF
Dubois Regional Airport
Dubois, Pennsylvania, USA
KDUJ 260539Z 2606/2706 22012G22KT 2SM -SN OVC006 FM261200 25012G19KT 4SM BR OVC007 TEMPO 2612/2616 4SM -SN OVC003

Jan-26@
06:00 UTC

Jan-26 @ 06:00 UTC

Jan-26@
12:00 UTC

Jan-26 @ 12:00 UTC

KDUJ 260539Z 2606/2706 22012G22KT 2SM -SN OVC006
Wind
  • 220° at 12 KTS
  • {Gusting to 22 KTS
Conditions
Light Snow
Cloud Levels
  • Overcast at 600' AGL

Jan-26@
12:00 UTC

Jan-26 @ 12:00 UTC

Jan-26@
16:00 UTC

Jan-26 @ 16:00 UTC

TEMPO 2612/2616 4SM -SN OVC003

Temporary

Temporary Changes expected for less than half the time period

Conditions
Light Snow
Cloud Levels
  • Overcast at 300' AGL

Jan-26@
12:00 UTC

Jan-26 @ 12:00 UTC

Jan-27@
06:00 UTC

Jan-27 @ 06:00 UTC

FM261200 25012G19KT 4SM BR OVC007

From

From Standard forecast or significant change

Wind
  • 250° at 12 KTS
  • {Gusting to 19 KTS
Conditions
Mist
Cloud Levels
  • Overcast at 700' AGL